Time;durP1;ratioP1;P1;durP2;ratioP2;P2;SDS_P1;SDS_P2;PMS_P1;PMS_P2;Temp;Humidity;BMP_temperature;BMP_pressure;BME280_temperature;BME280_humidity;BME280_pressure;Samples;Min_cycle;Max_cycle;Signal;HPM_P1;HPM_P2
2021/11/10 00:01:38;;;;;;;5.60;3.50;;;;;;;;;;5034977;28;20199;-94
2021/11/10 00:04:06;;;;;;;5.13;3.20;;;;;;;;;;5034721;28;20199;-94
2021/11/10 00:06:33;;;;;;;2.97;2.67;;;;;;;;;;5034513;28;20257;-93
2021/11/10 00:09:01;;;;;;;3.10;2.43;;;;;;;;;;5034898;28;20198;-93
2021/11/10 00:11:28;;;;;;;4.43;3.80;;;;;;;;;;5033946;28;20277;-93
2021/11/10 00:13:56;;;;;;;7.87;4.57;;;;;;;;;;5034353;28;20209;-93
2021/11/10 00:16:25;;;;;;;4.53;4.00;;;;;;;;;;5034624;28;20222;-94
2021/11/10 00:18:55;;;;;;;7.20;3.67;;;;;;;;;;5035206;28;20195;-93
2021/11/10 00:21:23;;;;;;;5.27;3.77;;;;;;;;;;5034184;28;20194;-94
2021/11/10 00:23:50;;;;;;;2.73;2.37;;;;;;;;;;5034231;28;20285;-94
2021/11/10 00:26:18;;;;;;;2.57;2.37;;;;;;;;;;5034133;28;20233;-94
2021/11/10 00:28:45;;;;;;;2.23;1.93;;;;;;;;;;5034322;28;20658;-93
2021/11/10 00:31:12;;;;;;;4.90;2.40;;;;;;;;;;5033924;28;20277;-94
2021/11/10 00:33:41;;;;;;;2.33;2.13;;;;;;;;;;5034047;28;20244;-94
2021/11/10 00:36:09;;;;;;;2.73;2.53;;;;;;;;;;5034294;28;20242;-94
2021/11/10 00:38:37;;;;;;;2.30;2.10;;;;;;;;;;5034337;28;20195;-91
2021/11/10 00:41:05;;;;;;;5.80;3.87;;;;;;;;;;5034064;28;20691;-93
2021/11/10 00:43:33;;;;;;;5.33;4.67;;;;;;;;;;5033880;28;20289;-93
2021/11/10 00:46:00;;;;;;;6.83;4.70;;;;;;;;;;5033824;28;20252;-92
2021/11/10 00:48:30;;;;;;;5.43;4.27;;;;;;;;;;5033779;28;20226;-94
2021/11/10 00:50:59;;;;;;;13.00;7.07;;;;;;;;;;5033997;28;20206;-93
2021/11/10 00:53:27;;;;;;;8.17;4.90;;;;;;;;;;5034403;28;20257;-93
2021/11/10 00:55:54;;;;;;;5.60;4.13;;;;;;;;;;5034245;28;20240;-93
2021/11/10 00:58:21;;;;;;;3.57;3.23;;;;;;;;;;5034008;28;20199;-92
2021/11/10 01:00:49;;;;;;;3.93;2.47;;;;;;;;;;5034265;28;20186;-93
2021/11/10 01:03:17;;;;;;;3.50;3.00;;;;;;;;;;5033361;28;20198;-92
2021/11/10 01:05:44;;;;;;;2.47;2.23;;;;;;;;;;5034121;28;20301;-92
2021/11/10 01:08:13;;;;;;;3.00;2.80;;;;;;;;;;5033503;28;20246;-92
2021/11/10 01:10:41;;;;;;;3.13;2.83;;;;;;;;;;5033232;28;20253;-92
2021/11/10 01:13:08;;;;;;;2.60;2.33;;;;;;;;;;5033687;28;20651;-91
2021/11/10 01:15:35;;;;;;;2.77;2.13;;;;;;;;;;5033285;28;20237;-92
2021/11/10 01:18:03;;;;;;;2.27;2.13;;;;;;;;;;5033507;28;20197;-92
2021/11/10 01:20:30;;;;;;;2.60;2.40;;;;;;;;;;5033061;28;20702;-92
2021/11/10 01:22:58;;;;;;;2.50;2.30;;;;;;;;;;5032792;28;20245;-93
2021/11/10 01:25:27;;;;;;;2.50;2.30;;;;;;;;;;5033212;28;20293;-93
2021/11/10 01:27:54;;;;;;;7.80;4.83;;;;;;;;;;5032983;28;20280;-92
2021/11/10 01:30:22;;;;;;;7.07;4.93;;;;;;;;;;5033059;28;20206;-93
2021/11/10 01:32:50;;;;;;;9.37;6.13;;;;;;;;;;5033497;28;20195;-93
2021/11/10 01:35:17;;;;;;;29.90;13.33;;;;;;;;;;5032958;28;20197;-93
2021/11/10 01:37:45;;;;;;;17.17;8.07;;;;;;;;;;5033203;28;20290;-91
2021/11/10 01:40:14;;;;;;;7.53;4.93;;;;;;;;;;5033166;28;20222;-93
2021/11/10 01:42:44;;;;;;;8.40;3.90;;;;;;;;;;5033066;28;20203;-92
2021/11/10 01:45:13;;;;;;;3.30;2.80;;;;;;;;;;5032863;28;20202;-93
2021/11/10 01:47:41;;;;;;;4.20;2.93;;;;;;;;;;5032682;28;20222;-92
2021/11/10 01:50:12;;;;;;;3.40;3.10;;;;;;;;;;5033071;28;20613;-92
2021/11/10 01:52:40;;;;;;;8.67;5.23;;;;;;;;;;5032838;28;20710;-93
2021/11/10 01:55:08;;;;;;;7.43;4.73;;;;;;;;;;5033271;28;20252;-93
2021/11/10 01:57:37;;;;;;;45.87;21.60;;;;;;;;;;5032868;28;20668;-93
2021/11/10 02:00:13;;;;;;;14.03;7.70;;;;;;;;;;5032953;28;20215;-93
2021/11/10 02:02:41;;;;;;;3.93;3.53;;;;;;;;;;5031458;28;20240;-94
2021/11/10 02:05:10;;;;;;;4.10;3.70;;;;;;;;;;5032906;28;20260;-94
2021/11/10 02:07:38;;;;;;;4.33;3.20;;;;;;;;;;5032792;28;20222;-95
2021/11/10 02:10:08;;;;;;;3.13;2.80;;;;;;;;;;5032996;28;20671;-93
2021/11/10 02:12:36;;;;;;;2.70;2.50;;;;;;;;;;5032700;28;20321;-93
2021/11/10 02:15:05;;;;;;;3.20;2.90;;;;;;;;;;5033306;28;20199;-96
2021/11/10 02:17:35;;;;;;;4.03;2.90;;;;;;;;;;5032676;28;20237;-94
2021/11/10 02:20:03;;;;;;;8.60;6.13;;;;;;;;;;5032612;28;20195;-94
2021/11/10 02:22:33;;;;;;;9.90;5.50;;;;;;;;;;5033045;28;20235;-94
2021/11/10 02:25:01;;;;;;;18.90;10.97;;;;;;;;;;5032518;28;20218;-94
2021/11/10 02:27:33;;;;;;;9.03;6.20;;;;;;;;;;5032407;28;20232;-95
2021/11/10 02:30:02;;;;;;;41.57;17.83;;;;;;;;;;5033204;28;20203;-94
2021/11/10 02:32:31;;;;;;;23.57;11.53;;;;;;;;;;5032563;28;20195;-96
2021/11/10 02:34:59;;;;;;;6.83;4.23;;;;;;;;;;5033243;28;20651;-96
2021/11/10 02:37:26;;;;;;;4.07;3.10;;;;;;;;;;5036330;28;20280;-95
2021/11/10 02:39:55;;;;;;;2.67;2.13;;;;;;;;;;5036438;28;20213;-95
2021/11/10 02:42:23;;;;;;;2.53;2.10;;;;;;;;;;5036511;28;20277;-94
2021/11/10 02:44:52;;;;;;;5.77;4.50;;;;;;;;;;5036423;28;20234;-95
2021/11/10 02:47:20;;;;;;;31.93;14.23;;;;;;;;;;5036754;28;20227;-95
2021/11/10 02:49:48;;;;;;;10.37;5.53;;;;;;;;;;5036262;28;20300;-96
2021/11/10 02:52:17;;;;;;;9.43;5.33;;;;;;;;;;5035878;28;20229;-96
2021/11/10 02:54:47;;;;;;;4.33;3.73;;;;;;;;;;5016208;28;20222;-94
2021/11/10 02:57:16;;;;;;;2.80;2.60;;;;;;;;;;5016298;28;20726;-93
2021/11/10 02:59:43;;;;;;;7.87;4.37;;;;;;;;;;5016115;28;20275;-94
2021/11/10 03:02:11;;;;;;;5.23;4.47;;;;;;;;;;5015941;28;20664;-95
2021/11/10 03:04:43;;;;;;;2.83;2.50;;;;;;;;;;5017292;28;20294;-95
2021/11/10 03:07:11;;;;;;;3.20;2.90;;;;;;;;;;5016125;28;20270;-96
2021/11/10 03:09:38;;;;;;;5.07;3.77;;;;;;;;;;5015774;28;20783;-95
2021/11/10 03:12:07;;;;;;;11.17;5.90;;;;;;;;;;5015668;28;20326;-94
2021/11/10 03:14:38;;;;;;;6.90;5.03;;;;;;;;;;5015907;28;20294;-95
2021/11/10 03:17:07;;;;;;;5.40;4.33;;;;;;;;;;5015764;28;20302;-96
2021/11/10 03:19:35;;;;;;;7.23;4.83;;;;;;;;;;5015711;28;20731;-96
2021/11/10 03:22:03;;;;;;;9.53;6.20;;;;;;;;;;5015662;28;20253;-91
2021/11/10 03:24:31;;;;;;;11.90;7.20;;;;;;;;;;5015511;28;20225;-89
2021/11/10 03:26:58;;;;;;;6.63;4.97;;;;;;;;;;5015363;28;20233;-89
2021/11/10 03:29:26;;;;;;;8.83;5.67;;;;;;;;;;5015349;28;20274;-89
2021/11/10 03:31:55;;;;;;;6.00;4.73;;;;;;;;;;5015210;28;20230;-89
2021/11/10 03:34:22;;;;;;;4.07;3.77;;;;;;;;;;5016279;28;20653;-89
2021/11/10 03:36:50;;;;;;;4.20;3.80;;;;;;;;;;5015505;28;20203;-89
2021/11/10 03:39:18;;;;;;;3.63;3.33;;;;;;;;;;5015338;28;20672;-89
2021/11/10 03:41:45;;;;;;;3.97;3.33;;;;;;;;;;5015226;28;20234;-89
2021/11/10 03:44:13;;;;;;;2.67;2.47;;;;;;;;;;5015340;28;20261;-89
2021/11/10 03:46:42;;;;;;;3.13;2.83;;;;;;;;;;5015016;28;20196;-89
2021/11/10 03:49:11;;;;;;;3.87;3.20;;;;;;;;;;5015011;28;20715;-90
2021/11/10 03:51:39;;;;;;;2.80;2.60;;;;;;;;;;5014878;28;20245;-89
2021/11/10 03:54:07;;;;;;;2.63;2.30;;;;;;;;;;5015131;28;20266;-89
2021/11/10 03:56:34;;;;;;;2.87;2.63;;;;;;;;;;5015152;28;20255;-90
2021/11/10 03:59:01;;;;;;;2.47;2.27;;;;;;;;;;5015017;28;20242;-89
2021/11/10 04:01:29;;;;;;;2.60;2.40;;;;;;;;;;5014769;28;20672;-90
2021/11/10 04:03:56;;;;;;;2.67;2.40;;;;;;;;;;5014881;28;20195;-91
2021/11/10 04:06:25;;;;;;;4.03;2.77;;;;;;;;;;5014470;28;20700;-91
2021/11/10 04:08:52;;;;;;;2.60;2.40;;;;;;;;;;5015091;28;20223;-89
2021/11/10 04:11:20;;;;;;;4.90;3.67;;;;;;;;;;5014634;28;20621;-89
2021/11/10 04:13:49;;;;;;;7.77;6.60;;;;;;;;;;5014797;28;20214;-89
2021/11/10 04:16:20;;;;;;;5.57;4.37;;;;;;;;;;5014816;28;20350;-89
2021/11/10 04:18:49;;;;;;;3.97;2.90;;;;;;;;;;5014551;28;20184;-89
2021/11/10 04:21:16;;;;;;;2.53;2.33;;;;;;;;;;5014314;28;20210;-89
2021/11/10 04:23:45;;;;;;;2.97;2.63;;;;;;;;;;5014621;28;20253;-89
2021/11/10 04:26:12;;;;;;;2.53;2.33;;;;;;;;;;5014312;28;20218;-90
2021/11/10 04:28:40;;;;;;;62.17;29.47;;;;;;;;;;5014177;28;20227;-90
2021/11/10 04:31:07;;;;;;;142.50;66.20;;;;;;;;;;5016919;28;20705;-94
2021/11/10 04:33:34;;;;;;;57.47;31.73;;;;;;;;;;5034318;28;20241;-91
2021/11/10 04:36:02;;;;;;;83.30;46.77;;;;;;;;;;5033999;28;20233;-91
2021/11/10 04:38:46;;;;;;;37.03;23.90;;;;;;;;;;5033770;28;20671;-92
2021/11/10 04:41:16;;;;;;;51.27;32.60;;;;;;;;;;5034217;28;20187;-91
2021/11/10 04:43:43;;;;;;;17.20;12.53;;;;;;;;;;5034024;28;20583;-92
2021/11/10 04:46:16;;;;;;;12.57;9.43;;;;;;;;;;5033780;28;20245;-91
2021/11/10 04:48:44;;;;;;;10.70;8.60;;;;;;;;;;5033628;28;20764;-91
2021/11/10 04:51:12;;;;;;;9.67;8.67;;;;;;;;;;5033726;28;20194;-91
2021/11/10 04:53:42;;;;;;;11.00;9.30;;;;;;;;;;5034243;28;20252;-92
2021/11/10 04:56:09;;;;;;;14.07;11.10;;;;;;;;;;5033736;28;20202;-91
2021/11/10 04:58:38;;;;;;;12.10;11.10;;;;;;;;;;5032683;28;20282;-90
2021/11/10 05:01:06;;;;;;;7.67;6.87;;;;;;;;;;5034218;28;20587;-91
2021/11/10 05:03:33;;;;;;;19.57;14.50;;;;;;;;;;5033751;28;20575;-90
2021/11/10 05:06:01;;;;;;;9.10;8.17;;;;;;;;;;5033262;28;20202;-91
2021/11/10 05:08:28;;;;;;;22.63;18.97;;;;;;;;;;5033473;28;20579;-91
2021/11/10 05:10:55;;;;;;;17.53;12.60;;;;;;;;;;5033309;28;20238;-91
2021/11/10 05:13:23;;;;;;;21.67;18.23;;;;;;;;;;5033662;28;20282;-91
2021/11/10 05:15:51;;;;;;;16.47;11.10;;;;;;;;;;5033254;28;20199;-90
2021/11/10 05:18:19;;;;;;;22.33;16.50;;;;;;;;;;5033033;28;20203;-91
2021/11/10 05:20:47;;;;;;;16.17;12.33;;;;;;;;;;5033127;28;20237;-90
2021/11/10 05:23:15;;;;;;;10.10;7.20;;;;;;;;;;5033128;28;20205;-90
2021/11/10 05:25:43;;;;;;;5.80;4.97;;;;;;;;;;5033431;28;20199;-91
2021/11/10 05:28:10;;;;;;;5.27;4.77;;;;;;;;;;5033140;28;20221;-90
2021/11/10 05:30:38;;;;;;;6.00;5.27;;;;;;;;;;5033119;28;20293;-91
2021/11/10 05:33:07;;;;;;;6.87;5.77;;;;;;;;;;5032972;28;20199;-90
2021/11/10 05:35:35;;;;;;;4.97;3.83;;;;;;;;;;5032857;28;20230;-90
2021/11/10 05:38:02;;;;;;;3.63;3.17;;;;;;;;;;5033205;28;20202;-91
2021/11/10 05:40:30;;;;;;;3.73;3.00;;;;;;;;;;5032895;28;20199;-91
2021/11/10 05:42:57;;;;;;;3.00;2.77;;;;;;;;;;5033380;28;20210;-91
2021/11/10 05:45:25;;;;;;;4.03;3.17;;;;;;;;;;5032971;28;20195;-91
2021/11/10 05:47:52;;;;;;;3.10;2.50;;;;;;;;;;5032860;28;20198;-91
2021/11/10 05:50:21;;;;;;;3.63;3.07;;;;;;;;;;5032812;28;20226;-91
2021/11/10 05:52:48;;;;;;;3.23;2.93;;;;;;;;;;5032743;28;20225;-91
2021/11/10 05:55:16;;;;;;;4.17;3.77;;;;;;;;;;5033108;28;20194;-92
2021/11/10 05:57:44;;;;;;;3.03;2.77;;;;;;;;;;5032970;28;20680;-92
2021/11/10 06:00:13;;;;;;;3.23;2.93;;;;;;;;;;5033231;28;20558;-91
2021/11/10 06:02:42;;;;;;;3.23;2.93;;;;;;;;;;5032692;28;20195;-92
2021/11/10 06:05:10;;;;;;;3.87;3.17;;;;;;;;;;5033386;28;20198;-92
2021/11/10 06:07:39;;;;;;;4.90;4.40;;;;;;;;;;5032676;28;20198;-93
2021/11/10 06:10:07;;;;;;;18.17;11.20;;;;;;;;;;5033308;28;20225;-90
2021/11/10 06:12:34;;;;;;;13.30;8.37;;;;;;;;;;5036762;28;20236;-93
2021/11/10 06:15:02;;;;;;;5.87;5.27;;;;;;;;;;5037595;28;20218;-91
2021/11/10 06:17:29;;;;;;;5.20;3.80;;;;;;;;;;5037429;28;20224;-93
2021/11/10 06:19:56;;;;;;;9.80;8.70;;;;;;;;;;5036810;28;20225;-94
2021/11/10 06:22:23;;;;;;;9.53;8.23;;;;;;;;;;5037257;28;20242;-93
2021/11/10 06:24:52;;;;;;;6.07;5.00;;;;;;;;;;5037150;28;20249;-94
2021/11/10 06:27:20;;;;;;;4.77;4.27;;;;;;;;;;5037080;28;20289;-95
2021/11/10 06:29:47;;;;;;;4.90;4.40;;;;;;;;;;5037139;28;20698;-93
2021/11/10 06:32:15;;;;;;;8.10;6.23;;;;;;;;;;5037043;28;20187;-94
2021/11/10 06:34:42;;;;;;;7.10;4.87;;;;;;;;;;5036494;28;20206;-95
2021/11/10 06:37:10;;;;;;;7.27;6.30;;;;;;;;;;5036839;28;20189;-94
2021/11/10 06:39:37;;;;;;;7.63;6.83;;;;;;;;;;5037139;28;20282;-92
2021/11/10 06:42:07;;;;;;;8.03;5.63;;;;;;;;;;5037003;28;20252;-94
2021/11/10 06:44:35;;;;;;;4.47;4.07;;;;;;;;;;5037899;28;20676;-95
2021/11/10 06:47:03;;;;;;;4.50;4.10;;;;;;;;;;5036855;28;20225;-95
2021/11/10 06:49:30;;;;;;;5.57;4.73;;;;;;;;;;5038599;28;20261;-94
2021/11/10 06:51:59;;;;;;;6.37;5.27;;;;;;;;;;5037781;28;20275;-96
2021/11/10 06:54:27;;;;;;;4.43;4.03;;;;;;;;;;5037211;28;20249;-94
2021/11/10 06:56:55;;;;;;;5.07;4.57;;;;;;;;;;5037914;28;20281;-96
2021/11/10 06:59:24;;;;;;;5.87;5.27;;;;;;;;;;5037477;28;20202;-96
2021/11/10 07:01:51;;;;;;;4.67;4.00;;;;;;;;;;5037153;28;20244;-94
2021/11/10 07:04:19;;;;;;;4.50;4.10;;;;;;;;;;5036849;28;20202;-94
2021/11/10 07:06:46;;;;;;;4.27;3.87;;;;;;;;;;5036491;28;20198;-95
2021/11/10 07:09:13;;;;;;;4.20;3.80;;;;;;;;;;5036516;28;20281;-95
2021/11/10 07:11:41;;;;;;;4.40;4.00;;;;;;;;;;5036383;28;20697;-95
2021/11/10 07:14:11;;;;;;;2.70;2.50;;;;;;;;;;5037145;28;20203;-95
2021/11/10 07:16:40;;;;;;;4.73;4.33;;;;;;;;;;5036813;28;20600;-95
2021/11/10 07:19:08;;;;;;;4.80;4.30;;;;;;;;;;5037897;28;20651;-95
2021/11/10 07:21:35;;;;;;;12.57;10.30;;;;;;;;;;5035892;28;20190;-95
2021/11/10 07:24:03;;;;;;;10.97;9.33;;;;;;;;;;5037527;28;20195;-96
2021/11/10 07:26:30;;;;;;;8.97;7.27;;;;;;;;;;5036460;28;20571;-95
2021/11/10 07:28:58;;;;;;;14.67;13.17;;;;;;;;;;5036929;28;20194;-96
2021/11/10 07:31:25;;;;;;;7.80;6.97;;;;;;;;;;5035761;28;20655;-96
2021/11/10 07:33:54;;;;;;;10.73;9.63;;;;;;;;;;5035981;28;20244;-95
2021/11/10 07:36:22;;;;;;;15.13;13.17;;;;;;;;;;5036788;28;20622;-95
2021/11/10 07:38:49;;;;;;;9.93;7.23;;;;;;;;;;5036624;28;20222;-96
2021/11/10 07:41:18;;;;;;;14.97;9.43;;;;;;;;;;5036774;28;20198;-95
2021/11/10 07:43:48;;;;;;;15.60;11.23;;;;;;;;;;5037170;28;20620;-95
2021/11/10 07:46:16;;;;;;;7.20;6.00;;;;;;;;;;5036874;28;20272;-94
2021/11/10 07:48:46;;;;;;;6.90;4.63;;;;;;;;;;5036708;28;20683;-95
2021/11/10 07:51:15;;;;;;;8.17;6.67;;;;;;;;;;5035975;28;20646;-96
2021/11/10 07:53:43;;;;;;;5.43;4.83;;;;;;;;;;5035932;28;20206;-94
2021/11/10 07:56:10;;;;;;;7.80;6.50;;;;;;;;;;5035545;28;20227;-95
2021/11/10 07:58:38;;;;;;;9.13;6.27;;;;;;;;;;5035617;28;20198;-95
2021/11/10 08:01:06;;;;;;;8.47;7.50;;;;;;;;;;5034889;28;20218;-95
2021/11/10 08:03:33;;;;;;;7.83;5.60;;;;;;;;;;5034739;28;20281;-95
2021/11/10 08:06:01;;;;;;;5.40;4.90;;;;;;;;;;5034965;28;20205;-95
2021/11/10 08:08:31;;;;;;;5.20;4.67;;;;;;;;;;5034918;28;20298;-95
2021/11/10 08:11:00;;;;;;;5.63;5.13;;;;;;;;;;5034460;28;20230;-96
2021/11/10 08:13:28;;;;;;;7.53;6.73;;;;;;;;;;5034617;28;20277;-95
2021/11/10 08:15:57;;;;;;;11.57;10.37;;;;;;;;;;5034955;28;20302;-95
2021/11/10 08:18:25;;;;;;;7.77;7.07;;;;;;;;;;5035342;28;20248;-95
2021/11/10 08:20:53;;;;;;;4.50;4.13;;;;;;;;;;5034641;28;20200;-95
2021/11/10 08:23:22;;;;;;;11.50;10.30;;;;;;;;;;5034514;28;20203;-96
2021/11/10 08:25:52;;;;;;;5.10;4.40;;;;;;;;;;5034604;28;20291;-95
2021/11/10 08:28:20;;;;;;;4.40;4.00;;;;;;;;;;5035139;28;20286;-96
2021/11/10 08:30:48;;;;;;;5.13;4.40;;;;;;;;;;5034687;28;20222;-95
2021/11/10 08:33:16;;;;;;;5.67;5.07;;;;;;;;;;5034318;28;20237;-95
2021/11/10 08:35:46;;;;;;;6.67;6.07;;;;;;;;;;5034907;28;20229;-96
2021/11/10 08:38:14;;;;;;;7.50;6.80;;;;;;;;;;5034915;28;20202;-94
2021/11/10 08:40:42;;;;;;;4.77;4.30;;;;;;;;;;5035398;28;20226;-95
2021/11/10 08:43:12;;;;;;;5.67;4.60;;;;;;;;;;5034124;28;20746;-96
2021/11/10 08:45:40;;;;;;;5.00;4.20;;;;;;;;;;5035000;28;20210;-96
2021/11/10 08:48:08;;;;;;;6.70;4.20;;;;;;;;;;5034457;28;20225;-95
2021/11/10 08:50:39;;;;;;;3.67;3.37;;;;;;;;;;5033897;28;20252;-95
2021/11/10 08:53:07;;;;;;;4.50;3.50;;;;;;;;;;5034074;28;20203;-96
2021/11/10 08:55:34;;;;;;;4.87;3.63;;;;;;;;;;5034303;28;20194;-95
2021/11/10 08:58:02;;;;;;;3.87;3.57;;;;;;;;;;5033729;28;20586;-94
2021/11/10 09:00:33;;;;;;;4.40;4.00;;;;;;;;;;5034082;28;20638;-96
2021/11/10 09:03:00;;;;;;;3.37;3.07;;;;;;;;;;5034428;28;20207;-95
2021/11/10 09:05:27;;;;;;;6.93;4.57;;;;;;;;;;5033836;28;20202;-95
2021/11/10 09:07:55;;;;;;;5.50;3.57;;;;;;;;;;5033556;28;20195;-94
2021/11/10 09:10:22;;;;;;;3.93;3.50;;;;;;;;;;5033902;28;20306;-96
2021/11/10 09:12:51;;;;;;;3.87;3.30;;;;;;;;;;5033506;28;20233;-95
2021/11/10 09:15:20;;;;;;;8.17;5.90;;;;;;;;;;5033671;28;20277;-94
2021/11/10 09:17:49;;;;;;;4.57;4.17;;;;;;;;;;5033537;28;20738;-96
2021/11/10 09:20:19;;;;;;;4.07;3.63;;;;;;;;;;5033577;28;20223;-95
2021/11/10 09:22:47;;;;;;;4.00;3.70;;;;;;;;;;5034188;28;20272;-95
2021/11/10 09:25:17;;;;;;;7.87;7.10;;;;;;;;;;5033386;28;20238;-95
2021/11/10 09:27:44;;;;;;;3.67;3.13;;;;;;;;;;5033451;28;20194;-95
2021/11/10 09:30:14;;;;;;;4.10;3.70;;;;;;;;;;5033319;28;20317;-95
2021/11/10 09:32:42;;;;;;;5.40;3.90;;;;;;;;;;5033704;28;20213;-95
2021/11/10 09:35:13;;;;;;;3.87;3.47;;;;;;;;;;5033127;28;20253;-95
2021/11/10 09:37:41;;;;;;;4.03;3.63;;;;;;;;;;5033667;28;20206;-95
2021/11/10 09:40:10;;;;;;;4.70;3.80;;;;;;;;;;5033356;28;20194;-94
2021/11/10 09:42:38;;;;;;;4.47;4.00;;;;;;;;;;5033950;28;20257;-96
2021/11/10 09:45:07;;;;;;;7.40;6.73;;;;;;;;;;5033827;28;20224;-94
2021/11/10 09:47:35;;;;;;;4.87;4.43;;;;;;;;;;5033148;28;20202;-95
2021/11/10 09:50:02;;;;;;;6.60;3.93;;;;;;;;;;5033275;28;20226;-95
2021/11/10 09:52:31;;;;;;;4.27;3.57;;;;;;;;;;5033175;28;20199;-94
2021/11/10 09:54:59;;;;;;;5.03;3.43;;;;;;;;;;5033315;28;20639;-95
2021/11/10 09:57:27;;;;;;;11.93;10.53;;;;;;;;;;5033427;28;20225;-94
2021/11/10 09:59:55;;;;;;;7.50;6.00;;;;;;;;;;5032945;28;20668;-95
2021/11/10 10:02:22;;;;;;;6.50;5.97;;;;;;;;;;5033089;28;20234;-95
2021/11/10 10:04:51;;;;;;;6.80;6.10;;;;;;;;;;5033093;28;20203;-94
2021/11/10 10:07:18;;;;;;;7.53;6.73;;;;;;;;;;5033159;28;20231;-96
2021/11/10 10:09:47;;;;;;;9.07;5.90;;;;;;;;;;5033655;28;20648;-95
2021/11/10 10:12:18;;;;;;;8.07;6.17;;;;;;;;;;5033161;28;20230;-94
2021/11/10 10:14:46;;;;;;;7.87;6.40;;;;;;;;;;5032831;28;20206;-96
2021/11/10 10:17:33;;;;;;;6.50;5.90;;;;;;;;;;5032739;28;20202;-93
2021/11/10 10:20:01;;;;;;;7.67;6.97;;;;;;;;;;5033233;28;20194;-95
2021/11/10 10:22:28;;;;;;;6.70;6.10;;;;;;;;;;5032907;28;20222;-96
2021/11/10 10:24:58;;;;;;;7.97;7.27;;;;;;;;;;5033695;28;20563;-96
2021/11/10 10:27:29;;;;;;;11.17;7.03;;;;;;;;;;5033161;28;20221;-94
2021/11/10 10:30:25;;;;;;;7.90;7.27;;;;;;;;;;5033432;28;20229;-95
2021/11/10 10:32:58;;;;;;;7.93;7.13;;;;;;;;;;5032575;28;20237;-94
2021/11/10 10:35:43;;;;;;;8.23;6.63;;;;;;;;;;5033084;28;20194;-96
2021/11/10 10:38:12;;;;;;;4.90;4.50;;;;;;;;;;5032799;28;20199;-94
2021/11/10 10:40:43;;;;;;;6.50;5.90;;;;;;;;;;5032802;28;20206;-95
2021/11/10 10:43:11;;;;;;;6.60;5.53;;;;;;;;;;5032597;28;20210;-95
2021/11/10 10:45:41;;;;;;;7.97;6.27;;;;;;;;;;5032835;28;20225;-95
2021/11/10 10:48:12;;;;;;;7.40;6.70;;;;;;;;;;5033195;28;20622;-95
2021/11/10 10:50:44;;;;;;;6.37;5.50;;;;;;;;;;5032765;28;20229;-95
2021/11/10 10:53:13;;;;;;;6.53;5.93;;;;;;;;;;5033060;28;20329;-95
2021/11/10 10:55:44;;;;;;;8.87;7.27;;;;;;;;;;5032526;28;20214;-95
2021/11/10 10:58:13;;;;;;;6.97;6.27;;;;;;;;;;5036331;28;20216;-95
2021/11/10 11:00:41;;;;;;;7.70;6.30;;;;;;;;;;5036145;28;20206;-94
2021/11/10 11:03:29;;;;;;;8.33;6.03;;;;;;;;;;5036142;28;20220;-96
2021/11/10 11:05:58;;;;;;;6.63;6.03;;;;;;;;;;5036113;28;20239;-95
2021/11/10 11:08:33;;;;;;;7.70;5.70;;;;;;;;;;5035978;28;20288;-95
2021/11/10 11:11:20;;;;;;;7.40;5.73;;;;;;;;;;5036080;28;20269;-93
2021/11/10 11:13:49;;;;;;;6.13;5.37;;;;;;;;;;5035826;28;20258;-93
2021/11/10 11:16:20;;;;;;;5.77;4.87;;;;;;;;;;5035784;28;20198;-95
2021/11/10 11:18:48;;;;;;;5.53;5.00;;;;;;;;;;5035875;28;20195;-95
2021/11/10 11:21:26;;;;;;;5.67;5.10;;;;;;;;;;5035910;28;20203;-94
2021/11/10 11:23:57;;;;;;;5.63;5.13;;;;;;;;;;5035633;28;20294;-94
2021/11/10 11:26:33;;;;;;;9.07;5.37;;;;;;;;;;5035568;28;20209;-94
2021/11/10 11:29:01;;;;;;;5.50;5.00;;;;;;;;;;5036060;28;20257;-95
2021/11/10 11:31:35;;;;;;;5.27;4.73;;;;;;;;;;5035267;28;20222;-96
2021/11/10 11:34:04;;;;;;;6.73;4.97;;;;;;;;;;5035553;28;20702;-95
2021/11/10 11:36:49;;;;;;;5.30;4.70;;;;;;;;;;5035462;28;20205;-95
2021/11/10 11:39:16;;;;;;;5.87;4.93;;;;;;;;;;5035228;28;20222;-94
2021/11/10 11:41:45;;;;;;;5.40;4.90;;;;;;;;;;5035493;28;20280;-95
2021/11/10 11:44:12;;;;;;;5.00;4.50;;;;;;;;;;5035112;28;20587;-94
2021/11/10 11:46:40;;;;;;;5.50;5.00;;;;;;;;;;5035417;28;20285;-94
2021/11/10 11:49:07;;;;;;;5.37;4.83;;;;;;;;;;5035301;28;20195;-94
2021/11/10 11:51:36;;;;;;;7.60;5.20;;;;;;;;;;5034909;28;20230;-95
2021/11/10 11:54:05;;;;;;;5.73;4.70;;;;;;;;;;5035033;28;20203;-95
2021/11/10 11:56:33;;;;;;;7.20;5.23;;;;;;;;;;5034926;28;20222;-93
2021/11/10 11:59:03;;;;;;;5.07;4.53;;;;;;;;;;5034976;28;20200;-93
2021/11/10 12:01:32;;;;;;;7.00;6.17;;;;;;;;;;5035652;28;20649;-94
2021/11/10 12:04:04;;;;;;;6.13;5.53;;;;;;;;;;5035376;28;20202;-94
2021/11/10 12:06:33;;;;;;;7.30;5.30;;;;;;;;;;5034780;28;20264;-93
2021/11/10 12:09:01;;;;;;;5.00;4.53;;;;;;;;;;5034699;28;20281;-94
2021/11/10 12:11:33;;;;;;;7.73;4.77;;;;;;;;;;5034503;28;20711;-94
2021/11/10 12:14:17;;;;;;;5.33;4.80;;;;;;;;;;5035180;28;20230;-95
2021/11/10 12:16:50;;;;;;;6.00;4.77;;;;;;;;;;5033966;28;20200;-93
2021/11/10 12:19:23;;;;;;;4.93;4.43;;;;;;;;;;5034866;28;20272;-93
2021/11/10 12:21:53;;;;;;;6.53;5.90;;;;;;;;;;5035193;28;20662;-94
2021/11/10 12:24:31;;;;;;;5.27;4.80;;;;;;;;;;5034623;28;20229;-93
2021/11/10 12:27:23;;;;;;;4.50;3.93;;;;;;;;;;5034493;28;20689;-93
2021/11/10 12:29:57;;;;;;;4.60;4.20;;;;;;;;;;5034587;28;20681;-94
2021/11/10 12:32:26;;;;;;;5.00;4.50;;;;;;;;;;5034896;28;20245;-93
2021/11/10 12:34:56;;;;;;;5.40;4.90;;;;;;;;;;5034149;28;20703;-94
2021/11/10 12:37:34;;;;;;;6.27;5.10;;;;;;;;;;5034135;28;20205;-94
2021/11/10 12:40:14;;;;;;;5.63;5.13;;;;;;;;;;5034057;28;20194;-94
2021/11/10 12:42:48;;;;;;;4.83;4.00;;;;;;;;;;5034586;28;20225;-93
2021/11/10 12:45:20;;;;;;;4.77;4.30;;;;;;;;;;5034268;28;20210;-94
2021/11/10 12:47:48;;;;;;;5.60;4.40;;;;;;;;;;5034054;28;20706;-95
2021/11/10 12:50:27;;;;;;;6.97;4.43;;;;;;;;;;5033901;28;20202;-94
2021/11/10 12:52:54;;;;;;;4.97;4.33;;;;;;;;;;5033866;28;20190;-93
2021/11/10 12:55:24;;;;;;;4.77;4.27;;;;;;;;;;5033905;28;20210;-93
2021/11/10 12:57:52;;;;;;;4.87;4.47;;;;;;;;;;5033775;28;20221;-93
2021/11/10 13:00:22;;;;;;;5.23;4.83;;;;;;;;;;5034000;28;20311;-93
2021/11/10 13:02:51;;;;;;;4.90;4.50;;;;;;;;;;5033808;28;20664;-93
2021/11/10 13:05:25;;;;;;;6.30;4.57;;;;;;;;;;5033595;28;20190;-93
2021/11/10 13:08:02;;;;;;;6.40;4.77;;;;;;;;;;5033814;28;20276;-93
2021/11/10 13:10:33;;;;;;;5.30;4.80;;;;;;;;;;5034236;28;20257;-93
2021/11/10 13:13:10;;;;;;;6.57;5.07;;;;;;;;;;5033496;28;20195;-94
2021/11/10 13:15:40;;;;;;;7.10;5.87;;;;;;;;;;5033607;28;20229;-93
2021/11/10 13:18:16;;;;;;;5.60;5.03;;;;;;;;;;5034239;28;20194;-94
2021/11/10 13:20:43;;;;;;;4.53;4.13;;;;;;;;;;5033360;28;20197;-92
2021/11/10 13:23:11;;;;;;;5.97;4.67;;;;;;;;;;5033867;28;20206;-94
2021/11/10 13:25:38;;;;;;;6.10;5.47;;;;;;;;;;5033251;28;20199;-93
2021/11/10 13:28:07;;;;;;;4.27;3.80;;;;;;;;;;5033434;28;20224;-94
2021/11/10 13:30:37;;;;;;;6.60;4.80;;;;;;;;;;5033017;28;20202;-94
2021/11/10 13:33:25;;;;;;;4.73;4.30;;;;;;;;;;5033521;28;20293;-94
2021/11/10 13:36:01;;;;;;;5.00;4.60;;;;;;;;;;5033334;28;20198;-94
2021/11/10 13:38:40;;;;;;;4.77;4.30;;;;;;;;;;5033312;28;20293;-94
2021/11/10 13:41:19;;;;;;;6.30;5.10;;;;;;;;;;5032954;28;20190;-93
2021/11/10 13:43:49;;;;;;;5.20;4.70;;;;;;;;;;5033347;28;20187;-93
2021/11/10 13:46:19;;;;;;;5.20;4.70;;;;;;;;;;5033103;28;20608;-94
2021/11/10 13:48:48;;;;;;;4.47;3.87;;;;;;;;;;5033482;28;20549;-93
2021/11/10 13:51:15;;;;;;;5.07;4.00;;;;;;;;;;5032754;28;20703;-93
2021/11/10 13:53:43;;;;;;;4.80;4.40;;;;;;;;;;5033014;28;20215;-93
2021/11/10 13:56:10;;;;;;;5.63;4.77;;;;;;;;;;5033044;28;20222;-93
2021/11/10 13:58:37;;;;;;;4.70;4.20;;;;;;;;;;5033040;28;20252;-93
2021/11/10 14:01:05;;;;;;;5.30;4.80;;;;;;;;;;5033028;28;20213;-94
2021/11/10 14:03:32;;;;;;;5.40;4.90;;;;;;;;;;5032814;28;20195;-93
2021/11/10 14:06:01;;;;;;;7.53;4.87;;;;;;;;;;5032993;28;20218;-94
2021/11/10 14:08:28;;;;;;;7.17;5.40;;;;;;;;;;5032691;28;20203;-93
2021/11/10 14:10:59;;;;;;;6.00;5.23;;;;;;;;;;5032578;28;20234;-94
2021/11/10 14:13:26;;;;;;;5.10;4.60;;;;;;;;;;5032599;28;20198;-93
2021/11/10 14:15:53;;;;;;;5.40;4.90;;;;;;;;;;5032644;28;20237;-94
2021/11/10 14:18:22;;;;;;;7.53;5.33;;;;;;;;;;5032809;28;20230;-93
2021/11/10 14:20:53;;;;;;;17.10;11.70;;;;;;;;;;5032850;28;20191;-95
2021/11/10 14:23:26;;;;;;;5.60;5.10;;;;;;;;;;5032598;28;20187;-93
2021/11/10 14:25:55;;;;;;;7.10;4.90;;;;;;;;;;5032715;28;20733;-94
2021/11/10 14:28:24;;;;;;;4.80;4.40;;;;;;;;;;5032647;28;20286;-95
2021/11/10 14:30:58;;;;;;;9.00;4.67;;;;;;;;;;5032921;28;20199;-95
2021/11/10 14:33:28;;;;;;;7.30;4.53;;;;;;;;;;5036651;28;20190;-94
2021/11/10 14:35:57;;;;;;;4.63;4.23;;;;;;;;;;5036457;28;20190;-94
2021/11/10 14:38:28;;;;;;;5.70;5.00;;;;;;;;;;5037081;28;20203;-94
2021/11/10 14:41:05;;;;;;;9.57;5.77;;;;;;;;;;5036431;28;20202;-93
2021/11/10 14:43:35;;;;;;;12.83;11.53;;;;;;;;;;5036597;28;20654;-94
2021/11/10 14:46:10;;;;;;;26.40;19.60;;;;;;;;;;5036119;28;20191;-95
2021/11/10 14:48:38;;;;;;;46.60;35.33;;;;;;;;;;5036136;28;20239;-94
2021/11/10 14:51:07;;;;;;;29.03;21.23;;;;;;;;;;5036022;28;20237;-94
2021/11/10 14:53:39;;;;;;;30.47;24.03;;;;;;;;;;5036009;28;20293;-94